Time;durP1;ratioP1;P1;durP2;ratioP2;P2;SDS_P1;SDS_P2;PMS_P1;PMS_P2;Temp;Humidity;BMP_temperature;BMP_pressure;BME280_temperature;BME280_humidity;BME280_pressure;Samples;Min_cycle;Max_cycle;Signal;HPM_P1;HPM_P2
2022/08/26 00:01:14;;;;;;;7.30;4.80;;;;;;;;;;5093849;28;20231;-86
2022/08/26 00:03:43;;;;;;;7.60;5.03;;;;;;;;;;5094956;28;20209;-86
2022/08/26 00:06:10;;;;;;;10.02;5.05;;;;;;;;;;5095012;28;20247;-86
2022/08/26 00:08:37;;;;;;;5.38;4.63;;;;;;;;;;5095095;28;20201;-86
2022/08/26 00:11:05;;;;;;;5.40;4.90;;;;;;;;;;5094077;28;20643;-86
2022/08/26 00:13:32;;;;;;;6.20;4.85;;;;;;;;;;5103021;28;20774;-86
2022/08/26 00:15:59;;;;;;;5.97;5.32;;;;;;;;;;5101570;28;20235;-84
2022/08/26 00:18:26;;;;;;;8.70;4.40;;;;;;;;;;5102862;28;20201;-86
2022/08/26 00:20:55;;;;;;;9.82;5.05;;;;;;;;;;5098907;28;20256;-86
2022/08/26 00:23:23;;;;;;;7.72;5.15;;;;;;;;;;5093865;28;20213;-86
2022/08/26 00:25:50;;;;;;;4.95;4.32;;;;;;;;;;5092256;28;20232;-86
2022/08/26 00:28:17;;;;;;;5.93;4.20;;;;;;;;;;5093414;28;20207;-86
2022/08/26 00:30:46;;;;;;;6.35;5.07;;;;;;;;;;5092564;28;20232;-86
2022/08/26 00:33:14;;;;;;;5.88;4.63;;;;;;;;;;5081232;28;20267;-85
2022/08/26 00:35:41;;;;;;;6.50;4.88;;;;;;;;;;5092120;28;20263;-85
2022/08/26 00:38:09;;;;;;;6.32;5.10;;;;;;;;;;5094967;28;20205;-86
2022/08/26 00:40:39;;;;;;;5.70;5.18;;;;;;;;;;5091993;28;20645;-86
2022/08/26 00:43:06;;;;;;;5.90;5.30;;;;;;;;;;5092424;28;20217;-85
2022/08/26 00:45:38;;;;;;;6.03;5.43;;;;;;;;;;5091949;28;20254;-84
2022/08/26 00:48:06;;;;;;;7.07;5.10;;;;;;;;;;5092611;28;20189;-86
2022/08/26 00:50:40;;;;;;;6.32;4.80;;;;;;;;;;5091634;28;20220;-86
2022/08/26 00:53:20;;;;;;;6.03;5.43;;;;;;;;;;5091991;28;20235;-86
2022/08/26 00:55:50;;;;;;;6.55;5.38;;;;;;;;;;5091681;28;20232;-86
2022/08/26 00:58:18;;;;;;;7.30;5.65;;;;;;;;;;5091190;28;20203;-86
2022/08/26 01:00:45;;;;;;;10.23;6.07;;;;;;;;;;5091494;28;20228;-85
2022/08/26 01:03:13;;;;;;;5.97;5.38;;;;;;;;;;5092357;28;20221;-86
2022/08/26 01:05:40;;;;;;;7.85;6.03;;;;;;;;;;5091534;28;20281;-86
2022/08/26 01:08:07;;;;;;;5.93;5.32;;;;;;;;;;5091696;28;20215;-86
2022/08/26 01:10:34;;;;;;;7.25;5.55;;;;;;;;;;5095645;28;20228;-85
2022/08/26 01:13:04;;;;;;;7.35;5.30;;;;;;;;;;5095830;28;20220;-85
2022/08/26 01:15:34;;;;;;;10.95;6.10;;;;;;;;;;5095740;28;20216;-86
2022/08/26 01:18:01;;;;;;;9.13;6.05;;;;;;;;;;5096515;28;20200;-84
2022/08/26 01:20:33;;;;;;;7.10;5.45;;;;;;;;;;5095551;28;20236;-86
2022/08/26 01:23:03;;;;;;;8.25;5.72;;;;;;;;;;5096078;28;20240;-86
2022/08/26 01:25:32;;;;;;;8.88;5.55;;;;;;;;;;5095897;28;20599;-86
2022/08/26 01:28:00;;;;;;;8.18;5.80;;;;;;;;;;5096449;28;20215;-87
2022/08/26 01:30:28;;;;;;;7.40;5.63;;;;;;;;;;5095721;28;20284;-85
2022/08/26 01:32:56;;;;;;;7.95;5.95;;;;;;;;;;5096766;28;20236;-86
2022/08/26 01:35:23;;;;;;;8.43;5.68;;;;;;;;;;5095795;28;20248;-86
2022/08/26 01:37:53;;;;;;;8.20;6.47;;;;;;;;;;5096167;28;20213;-86
2022/08/26 01:40:24;;;;;;;8.32;6.03;;;;;;;;;;5095556;28;20236;-86
2022/08/26 01:42:51;;;;;;;7.95;6.18;;;;;;;;;;5095936;28;20315;-86
2022/08/26 01:45:20;;;;;;;7.22;5.93;;;;;;;;;;5095394;28;20229;-85
2022/08/26 01:47:48;;;;;;;6.70;5.93;;;;;;;;;;5096113;28;20216;-86
2022/08/26 01:50:17;;;;;;;6.65;5.95;;;;;;;;;;5095248;28;20235;-86
2022/08/26 01:52:45;;;;;;;7.80;5.70;;;;;;;;;;5095270;28;20244;-86
2022/08/26 01:55:14;;;;;;;6.20;5.60;;;;;;;;;;5095503;28;20749;-85
2022/08/26 01:57:43;;;;;;;6.47;5.72;;;;;;;;;;5102602;28;20212;-84
2022/08/26 02:00:12;;;;;;;7.30;5.65;;;;;;;;;;5103016;28;20232;-86
2022/08/26 02:02:39;;;;;;;9.55;5.80;;;;;;;;;;5097064;28;20220;-85
2022/08/26 02:05:07;;;;;;;7.40;5.70;;;;;;;;;;5095264;28;20281;-85
2022/08/26 02:07:34;;;;;;;6.00;5.40;;;;;;;;;;5110008;28;20205;-86
2022/08/26 02:10:01;;;;;;;8.90;6.07;;;;;;;;;;5096757;28;20224;-85
2022/08/26 02:12:28;;;;;;;10.35;5.90;;;;;;;;;;5096270;28;20228;-84
2022/08/26 02:14:59;;;;;;;6.45;5.60;;;;;;;;;;5094840;28;20254;-86
2022/08/26 02:17:34;;;;;;;6.68;5.90;;;;;;;;;;5095414;28;20192;-86
2022/08/26 02:20:02;;;;;;;6.82;5.82;;;;;;;;;;5093859;28;20266;-86
2022/08/26 02:22:29;;;;;;;6.50;5.65;;;;;;;;;;5095212;28;20228;-86
2022/08/26 02:24:57;;;;;;;8.25;5.97;;;;;;;;;;5094444;28;20236;-86
2022/08/26 02:27:26;;;;;;;8.60;6.10;;;;;;;;;;5095325;28;20204;-86
2022/08/26 02:29:55;;;;;;;7.68;5.63;;;;;;;;;;5094411;28;20232;-85
2022/08/26 02:32:24;;;;;;;6.32;5.72;;;;;;;;;;5094782;28;20231;-86
2022/08/26 02:34:51;;;;;;;6.40;5.60;;;;;;;;;;5094247;28;20243;-84
2022/08/26 02:37:18;;;;;;;5.93;5.32;;;;;;;;;;5094852;28;20208;-86
2022/08/26 02:39:45;;;;;;;7.30;5.20;;;;;;;;;;5094450;28;20232;-84
2022/08/26 02:42:12;;;;;;;7.43;5.38;;;;;;;;;;5094533;28;20294;-86
2022/08/26 02:44:39;;;;;;;5.85;5.35;;;;;;;;;;5094478;28;20258;-84
2022/08/26 02:47:07;;;;;;;6.88;5.40;;;;;;;;;;5094617;28;20228;-86
2022/08/26 02:49:36;;;;;;;6.38;5.78;;;;;;;;;;5094154;28;20200;-86
2022/08/26 02:52:04;;;;;;;8.90;5.70;;;;;;;;;;5094376;28;20244;-84
2022/08/26 02:54:31;;;;;;;9.23;5.55;;;;;;;;;;5093859;28;20212;-86
2022/08/26 02:56:58;;;;;;;9.60;5.53;;;;;;;;;;5094795;28;20296;-86
2022/08/26 02:59:25;;;;;;;6.55;5.22;;;;;;;;;;5094108;28;20208;-86
2022/08/26 03:01:53;;;;;;;8.05;5.47;;;;;;;;;;5093939;28;20232;-85
2022/08/26 03:04:20;;;;;;;6.25;5.65;;;;;;;;;;5094040;28;20294;-86
2022/08/26 03:06:49;;;;;;;5.72;5.22;;;;;;;;;;5094417;28;20692;-86
2022/08/26 03:09:17;;;;;;;5.97;5.13;;;;;;;;;;5094651;28;20239;-86
2022/08/26 03:11:45;;;;;;;7.35;5.57;;;;;;;;;;5093784;28;20217;-86
2022/08/26 03:14:12;;;;;;;7.30;5.93;;;;;;;;;;5094356;28;20185;-86
2022/08/26 03:16:39;;;;;;;5.70;5.13;;;;;;;;;;5093611;28;20266;-85
2022/08/26 03:19:07;;;;;;;6.60;5.80;;;;;;;;;;5094022;28;20212;-86
2022/08/26 03:21:35;;;;;;;6.50;5.90;;;;;;;;;;5093045;28;20731;-84
2022/08/26 03:24:04;;;;;;;8.05;5.38;;;;;;;;;;5094122;28;20200;-86
2022/08/26 03:26:31;;;;;;;7.07;5.57;;;;;;;;;;5093124;28;20244;-85
2022/08/26 03:31:42;;;;;;;11.68;5.72;;;;;;;;;;5079912;28;20231;-86
2022/08/26 03:34:09;;;;;;;9.82;5.45;;;;;;;;;;5073608;28;20208;-86
2022/08/26 03:36:37;;;;;;;6.55;5.18;;;;;;;;;;5091753;28;20231;-86
2022/08/26 03:39:06;;;;;;;6.13;5.47;;;;;;;;;;5093246;28;20200;-86
2022/08/26 03:41:34;;;;;;;6.57;5.60;;;;;;;;;;5091456;28;20224;-86
2022/08/26 03:44:02;;;;;;;6.25;5.25;;;;;;;;;;5092973;28;20657;-85
2022/08/26 03:46:31;;;;;;;9.77;5.72;;;;;;;;;;5092696;28;20598;-84
2022/08/26 03:48:58;;;;;;;7.50;5.57;;;;;;;;;;5093013;28;20201;-86
2022/08/26 03:51:25;;;;;;;9.70;5.80;;;;;;;;;;5091955;28;20334;-86
2022/08/26 03:53:52;;;;;;;7.95;5.78;;;;;;;;;;5092912;28;20208;-86
2022/08/26 03:56:20;;;;;;;11.05;6.13;;;;;;;;;;5091715;28;20224;-86
2022/08/26 03:58:47;;;;;;;11.77;6.75;;;;;;;;;;5093394;28;20197;-87
2022/08/26 04:01:14;;;;;;;8.55;6.07;;;;;;;;;;5084941;28;20227;-84
2022/08/26 04:04:00;;;;;;;6.85;6.05;;;;;;;;;;5072640;28;20229;-86
2022/08/26 04:06:28;;;;;;;6.78;5.78;;;;;;;;;;5087087;28;20225;-86
2022/08/26 04:08:56;;;;;;;7.63;6.22;;;;;;;;;;5085544;28;20668;-86
2022/08/26 04:11:27;;;;;;;7.53;5.90;;;;;;;;;;5073909;28;20271;-87
2022/08/26 04:13:54;;;;;;;8.48;5.70;;;;;;;;;;5075089;28;20529;-85
2022/08/26 04:16:21;;;;;;;7.03;5.47;;;;;;;;;;5073389;28;20640;-87
2022/08/26 04:18:49;;;;;;;12.75;5.70;;;;;;;;;;5074678;28;20201;-87
2022/08/26 04:21:16;;;;;;;9.38;6.05;;;;;;;;;;5074393;28;20229;-87
2022/08/26 04:23:43;;;;;;;6.75;6.05;;;;;;;;;;5074380;28;20225;-86
2022/08/26 04:26:10;;;;;;;7.40;5.82;;;;;;;;;;5089989;28;20239;-87
2022/08/26 04:28:39;;;;;;;6.75;6.10;;;;;;;;;;5092827;28;20205;-87
2022/08/26 04:31:08;;;;;;;7.43;5.72;;;;;;;;;;5091805;28;20251;-86
2022/08/26 04:33:35;;;;;;;7.55;5.75;;;;;;;;;;5092870;28;20221;-86
2022/08/26 04:36:02;;;;;;;7.05;5.25;;;;;;;;;;5092377;28;20667;-87
2022/08/26 04:38:30;;;;;;;6.88;5.75;;;;;;;;;;5092987;28;20196;-84
2022/08/26 04:40:57;;;;;;;7.78;6.00;;;;;;;;;;5091219;28;20233;-85
2022/08/26 04:43:27;;;;;;;6.38;5.78;;;;;;;;;;5091983;28;20240;-86
2022/08/26 04:45:56;;;;;;;6.90;5.65;;;;;;;;;;5092090;28;20723;-85
2022/08/26 04:48:23;;;;;;;8.98;6.20;;;;;;;;;;5092682;28;20216;-85
2022/08/26 04:50:51;;;;;;;7.13;5.78;;;;;;;;;;5092176;28;20410;-84
2022/08/26 04:53:18;;;;;;;8.30;6.13;;;;;;;;;;5093493;28;20354;-85
2022/08/26 04:55:45;;;;;;;10.35;6.80;;;;;;;;;;5097156;28;20728;-84
2022/08/26 04:58:14;;;;;;;11.77;6.35;;;;;;;;;;5099312;28;20208;-84
2022/08/26 05:00:43;;;;;;;13.27;6.97;;;;;;;;;;5098133;28;20723;-83
2022/08/26 05:03:12;;;;;;;10.23;6.50;;;;;;;;;;5093074;28;20232;-83
2022/08/26 05:05:40;;;;;;;9.50;6.78;;;;;;;;;;5095376;28;20671;-85
2022/08/26 05:08:07;;;;;;;10.45;6.80;;;;;;;;;;5094267;28;20201;-85
2022/08/26 05:10:34;;;;;;;10.73;6.97;;;;;;;;;;5093513;28;20610;-86
2022/08/26 05:13:02;;;;;;;12.25;7.72;;;;;;;;;;5094381;28;20263;-86
2022/08/26 05:15:29;;;;;;;7.97;6.68;;;;;;;;;;5093586;28;20641;-86
2022/08/26 05:17:57;;;;;;;11.27;7.32;;;;;;;;;;5092073;28;20224;-87
2022/08/26 05:20:26;;;;;;;8.02;7.03;;;;;;;;;;5092335;28;20238;-86
2022/08/26 05:22:53;;;;;;;9.40;6.45;;;;;;;;;;5092081;28;20221;-86
2022/08/26 05:25:20;;;;;;;7.53;6.60;;;;;;;;;;5092040;28;20611;-85
2022/08/26 05:27:47;;;;;;;7.88;7.07;;;;;;;;;;5092741;28;20229;-83
2022/08/26 05:30:15;;;;;;;11.00;7.00;;;;;;;;;;5092094;28;20232;-83
2022/08/26 05:32:42;;;;;;;9.32;8.15;;;;;;;;;;5092204;28;20229;-85
2022/08/26 05:35:09;;;;;;;9.27;6.90;;;;;;;;;;5091793;28;20236;-83
2022/08/26 05:37:38;;;;;;;9.95;7.40;;;;;;;;;;5093025;28;20209;-84
2022/08/26 05:40:06;;;;;;;10.15;7.72;;;;;;;;;;5092160;28;20233;-84
2022/08/26 05:42:33;;;;;;;9.13;7.78;;;;;;;;;;5095475;28;20232;-84
2022/08/26 05:45:01;;;;;;;9.32;7.55;;;;;;;;;;5095566;28;20232;-83
2022/08/26 05:47:28;;;;;;;8.00;7.20;;;;;;;;;;5092105;28;20235;-84
2022/08/26 05:49:55;;;;;;;9.52;7.40;;;;;;;;;;5106313;28;20256;-83
2022/08/26 05:52:22;;;;;;;8.93;8.02;;;;;;;;;;5092363;28;20314;-85
2022/08/26 05:54:51;;;;;;;12.57;8.15;;;;;;;;;;5092823;28;20258;-82
2022/08/26 05:57:18;;;;;;;11.20;8.52;;;;;;;;;;5091271;28;20284;-86
2022/08/26 05:59:45;;;;;;;9.70;8.23;;;;;;;;;;5074690;28;20248;-82
2022/08/26 06:02:12;;;;;;;9.75;8.18;;;;;;;;;;5087724;28;20232;-84
2022/08/26 06:04:39;;;;;;;13.48;8.52;;;;;;;;;;5094831;28;20307;-83
2022/08/26 06:07:07;;;;;;;13.57;8.50;;;;;;;;;;5095562;28;20232;-84
2022/08/26 06:09:36;;;;;;;9.27;8.40;;;;;;;;;;5094908;28;20250;-84
2022/08/26 06:12:05;;;;;;;12.18;8.85;;;;;;;;;;5095093;28;20235;-82
2022/08/26 06:14:32;;;;;;;8.65;7.68;;;;;;;;;;5094612;28;20204;-83
2022/08/26 06:17:00;;;;;;;10.60;8.02;;;;;;;;;;5095798;28;20207;-85
2022/08/26 06:19:28;;;;;;;12.40;8.65;;;;;;;;;;5096293;28;20213;-84
2022/08/26 06:21:55;;;;;;;9.77;8.40;;;;;;;;;;5095881;28;20228;-84
2022/08/26 06:27:12;;;;;;;11.65;8.38;;;;;;;;;;5095719;28;20279;-84
2022/08/26 06:29:40;;;;;;;9.65;8.00;;;;;;;;;;5095146;28;20232;-84
2022/08/26 06:32:07;;;;;;;9.50;7.63;;;;;;;;;;5095737;28;20228;-84
2022/08/26 06:34:34;;;;;;;10.30;7.80;;;;;;;;;;5094994;28;20208;-82
2022/08/26 06:37:02;;;;;;;9.05;8.13;;;;;;;;;;5096426;28;20205;-84
2022/08/26 06:39:29;;;;;;;8.93;7.97;;;;;;;;;;5095805;28;20212;-83
2022/08/26 06:41:56;;;;;;;11.23;7.97;;;;;;;;;;5093951;28;20224;-82
2022/08/26 06:44:25;;;;;;;8.82;7.93;;;;;;;;;;5082889;28;20205;-84
2022/08/26 06:46:52;;;;;;;10.55;7.85;;;;;;;;;;5075082;28;20260;-84
2022/08/26 06:49:19;;;;;;;9.88;7.93;;;;;;;;;;5074945;28;20210;-84
2022/08/26 06:51:46;;;;;;;10.13;8.35;;;;;;;;;;5075453;28;20965;-84
2022/08/26 06:54:14;;;;;;;11.93;8.27;;;;;;;;;;5076694;28;20216;-84
2022/08/26 06:56:42;;;;;;;8.68;7.78;;;;;;;;;;5075441;28;20233;-82
2022/08/26 06:59:10;;;;;;;8.98;8.00;;;;;;;;;;5076519;28;20209;-84
2022/08/26 07:01:43;;;;;;;11.75;7.90;;;;;;;;;;5075249;28;20233;-85
2022/08/26 07:04:16;;;;;;;9.88;7.70;;;;;;;;;;5082892;28;20178;-85
2022/08/26 07:06:48;;;;;;;9.73;8.05;;;;;;;;;;5094161;28;20221;-83
2022/08/26 07:09:15;;;;;;;8.90;7.43;;;;;;;;;;5083369;28;20218;-85
2022/08/26 07:11:43;;;;;;;8.75;7.63;;;;;;;;;;5074064;28;20428;-84
2022/08/26 07:14:10;;;;;;;8.95;7.68;;;;;;;;;;5074335;28;20703;-84
2022/08/26 07:16:39;;;;;;;11.82;6.72;;;;;;;;;;5073113;28;20677;-84
2022/08/26 07:19:08;;;;;;;9.15;6.85;;;;;;;;;;5074360;28;20224;-85
2022/08/26 07:21:36;;;;;;;9.15;7.00;;;;;;;;;;5072765;28;20606;-85
2022/08/26 07:24:03;;;;;;;7.75;6.68;;;;;;;;;;5073652;28;20270;-85
2022/08/26 07:26:31;;;;;;;7.93;6.65;;;;;;;;;;5072991;28;20237;-85
2022/08/26 07:28:59;;;;;;;7.03;6.00;;;;;;;;;;5087235;28;20196;-85
2022/08/26 07:31:27;;;;;;;7.65;6.50;;;;;;;;;;5092879;28;20232;-85
2022/08/26 07:33:55;;;;;;;11.02;7.07;;;;;;;;;;5090902;28;20201;-85
2022/08/26 07:36:24;;;;;;;8.63;7.20;;;;;;;;;;5089549;28;20224;-84
2022/08/26 07:38:51;;;;;;;8.88;6.93;;;;;;;;;;5093865;28;20696;-85
2022/08/26 07:41:21;;;;;;;10.00;6.68;;;;;;;;;;5089223;28;20319;-85
2022/08/26 07:43:49;;;;;;;7.18;6.50;;;;;;;;;;5089296;28;20208;-85
2022/08/26 07:46:18;;;;;;;7.22;6.53;;;;;;;;;;5090018;28;20277;-86
2022/08/26 07:48:46;;;;;;;8.77;6.57;;;;;;;;;;5072976;28;20719;-85
2022/08/26 07:51:14;;;;;;;13.25;6.22;;;;;;;;;;5072789;28;20237;-85
2022/08/26 07:53:43;;;;;;;7.43;6.38;;;;;;;;;;5083220;28;20259;-85
2022/08/26 07:56:11;;;;;;;6.93;6.18;;;;;;;;;;5092604;28;20277;-85
2022/08/26 07:58:38;;;;;;;6.88;5.90;;;;;;;;;;5093002;28;20928;-85
2022/08/26 08:01:06;;;;;;;7.88;6.30;;;;;;;;;;5092281;28;20241;-84
2022/08/26 08:03:33;;;;;;;8.68;6.22;;;;;;;;;;5092937;28;20263;-84
2022/08/26 08:06:00;;;;;;;8.00;6.55;;;;;;;;;;5092021;28;20232;-85
2022/08/26 08:08:27;;;;;;;9.07;5.97;;;;;;;;;;5093254;28;20209;-85
2022/08/26 08:10:56;;;;;;;5.88;5.38;;;;;;;;;;5092239;28;20259;-85
2022/08/26 08:13:23;;;;;;;7.57;5.57;;;;;;;;;;5093010;28;20228;-84
2022/08/26 08:15:51;;;;;;;7.60;5.45;;;;;;;;;;5087802;28;20264;-85
2022/08/26 08:18:18;;;;;;;7.75;6.15;;;;;;;;;;5071615;28;20197;-85
2022/08/26 08:20:45;;;;;;;6.22;5.60;;;;;;;;;;5071351;28;20244;-86
2022/08/26 08:23:12;;;;;;;6.85;5.28;;;;;;;;;;5072303;28;20232;-85
2022/08/26 08:25:42;;;;;;;7.55;5.13;;;;;;;;;;5072107;28;20267;-85
2022/08/26 08:28:11;;;;;;;6.97;5.85;;;;;;;;;;5088880;28;20316;-84
2022/08/26 08:30:39;;;;;;;7.10;5.32;;;;;;;;;;5083638;28;20228;-85
2022/08/26 08:33:06;;;;;;;5.32;4.82;;;;;;;;;;5087388;28;20307;-83
2022/08/26 08:35:33;;;;;;;8.30;5.75;;;;;;;;;;5079670;28;20225;-85
2022/08/26 08:38:02;;;;;;;8.48;5.30;;;;;;;;;;5088714;28;20713;-85
2022/08/26 08:40:30;;;;;;;6.70;5.40;;;;;;;;;;5092211;28;20662;-85
2022/08/26 08:42:58;;;;;;;6.90;5.88;;;;;;;;;;5092495;28;20232;-85
2022/08/26 08:45:29;;;;;;;6.95;5.05;;;;;;;;;;5106850;28;20208;-83
2022/08/26 08:47:58;;;;;;;13.07;5.53;;;;;;;;;;5092460;28;20606;-86
2022/08/26 08:50:27;;;;;;;7.20;5.38;;;;;;;;;;5075976;28;20233;-85
2022/08/26 08:52:59;;;;;;;7.45;5.47;;;;;;;;;;5073946;28;20588;-85
2022/08/26 08:55:30;;;;;;;6.65;4.90;;;;;;;;;;5074048;28;20222;-86
2022/08/26 08:58:01;;;;;;;8.30;5.50;;;;;;;;;;5079601;28;20186;-86
2022/08/26 09:00:33;;;;;;;7.95;5.43;;;;;;;;;;5094978;28;20233;-84
2022/08/26 09:03:02;;;;;;;10.65;5.63;;;;;;;;;;5102778;28;20196;-82
2022/08/26 09:05:30;;;;;;;6.97;5.50;;;;;;;;;;5084811;28;20259;-85
2022/08/26 09:08:02;;;;;;;7.80;5.70;;;;;;;;;;5086105;28;20248;-86
2022/08/26 09:10:36;;;;;;;8.80;5.53;;;;;;;;;;5092760;28;20225;-86
2022/08/26 09:13:05;;;;;;;7.75;5.72;;;;;;;;;;5083567;28;20224;-85
2022/08/26 09:15:37;;;;;;;9.27;5.53;;;;;;;;;;5091186;28;20229;-85
2022/08/26 09:18:09;;;;;;;7.45;5.07;;;;;;;;;;5092125;28;20205;-86
2022/08/26 09:20:46;;;;;;;11.00;5.60;;;;;;;;;;5096684;28;20232;-86
2022/08/26 09:23:14;;;;;;;11.57;5.47;;;;;;;;;;5097543;28;20228;-85
2022/08/26 09:25:48;;;;;;;7.40;5.18;;;;;;;;;;5096451;28;20240;-85
2022/08/26 09:28:17;;;;;;;7.32;5.43;;;;;;;;;;5098993;28;20228;-84
2022/08/26 09:30:46;;;;;;;7.50;5.20;;;;;;;;;;5092016;28;20225;-84
2022/08/26 09:33:17;;;;;;;8.48;5.72;;;;;;;;;;5101704;28;20234;-83
2022/08/26 09:35:47;;;;;;;8.25;5.90;;;;;;;;;;5098758;28;20232;-86
2022/08/26 09:38:24;;;;;;;7.22;5.18;;;;;;;;;;5096688;28;20201;-86
2022/08/26 09:40:55;;;;;;;8.30;5.55;;;;;;;;;;5095518;28;20659;-85
2022/08/26 09:43:22;;;;;;;8.15;5.35;;;;;;;;;;5096115;28;20220;-86
2022/08/26 09:45:53;;;;;;;9.00;5.00;;;;;;;;;;5095261;28;20239;-87
2022/08/26 09:48:27;;;;;;;7.97;5.20;;;;;;;;;;5086777;28;20235;-84
2022/08/26 09:50:56;;;;;;;5.82;4.75;;;;;;;;;;5074829;28;20728;-85
2022/08/26 09:53:24;;;;;;;6.00;5.07;;;;;;;;;;5076762;28;20233;-85
2022/08/26 09:55:53;;;;;;;10.48;5.85;;;;;;;;;;5075209;28;20233;-86
2022/08/26 09:58:32;;;;;;;11.27;5.30;;;;;;;;;;5076076;28;20564;-86
2022/08/26 10:01:01;;;;;;;8.88;5.32;;;;;;;;;;5075247;28;20236;-86
2022/08/26 10:03:31;;;;;;;7.00;5.13;;;;;;;;;;5075838;28;20225;-85
2022/08/26 10:06:00;;;;;;;8.18;5.50;;;;;;;;;;5075020;28;20650;-87
2022/08/26 10:08:29;;;;;;;9.10;5.57;;;;;;;;;;5075008;28;20236;-86
2022/08/26 10:10:56;;;;;;;7.25;5.45;;;;;;;;;;5103276;22;20248;-86
2022/08/26 10:13:26;;;;;;;10.57;5.10;;;;;;;;;;5074610;28;20197;-87
2022/08/26 10:15:56;;;;;;;8.63;5.70;;;;;;;;;;5062913;28;20241;-86
2022/08/26 10:18:29;;;;;;;9.77;5.35;;;;;;;;;;5055902;28;20190;-87
2022/08/26 10:20:58;;;;;;;7.15;5.22;;;;;;;;;;5064642;28;20720;-86
2022/08/26 10:23:26;;;;;;;7.93;4.93;;;;;;;;;;5079865;28;20662;-87
2022/08/26 10:25:55;;;;;;;10.43;5.47;;;;;;;;;;5077080;28;20596;-87
2022/08/26 10:28:27;;;;;;;6.22;5.10;;;;;;;;;;5075285;28;20557;-86
2022/08/26 10:30:56;;;;;;;7.50;5.38;;;;;;;;;;5075005;28;20262;-86
2022/08/26 10:33:24;;;;;;;13.38;5.18;;;;;;;;;;5075401;28;20694;-86
2022/08/26 10:35:54;;;;;;;8.02;5.22;;;;;;;;;;5075783;28;20245;-86
2022/08/26 10:38:26;;;;;;;8.40;5.50;;;;;;;;;;5077250;28;20664;-86
2022/08/26 10:40:55;;;;;;;10.60;5.55;;;;;;;;;;5088835;28;20240;-87
2022/08/26 10:43:24;;;;;;;6.47;4.93;;;;;;;;;;5097103;28;20230;-86
2022/08/26 10:45:52;;;;;;;8.48;5.45;;;;;;;;;;5084113;28;20260;-87
2022/08/26 10:48:23;;;;;;;7.60;5.22;;;;;;;;;;5077157;28;20720;-86
2022/08/26 10:50:50;;;;;;;8.57;5.20;;;;;;;;;;5077208;28;20705;-86
2022/08/26 10:53:24;;;;;;;8.98;5.15;;;;;;;;;;5078000;28;20725;-86
2022/08/26 10:55:56;;;;;;;9.15;5.57;;;;;;;;;;5077513;28;20237;-86
2022/08/26 10:58:36;;;;;;;10.27;5.38;;;;;;;;;;5072679;28;20209;-86
2022/08/26 11:03:57;;;;;;;9.23;5.10;;;;;;;;;;5076539;28;20192;-85
2022/08/26 11:06:26;;;;;;;8.02;5.03;;;;;;;;;;5075130;28;20229;-85
2022/08/26 11:08:55;;;;;;;7.28;5.18;;;;;;;;;;5076784;28;20232;-85
2022/08/26 11:11:41;;;;;;;9.10;5.45;;;;;;;;;;5075325;28;20320;-85
2022/08/26 11:14:08;;;;;;;8.55;5.32;;;;;;;;;;5076356;28;20213;-86
2022/08/26 11:16:38;;;;;;;6.50;4.65;;;;;;;;;;5075453;28;20240;-86
2022/08/26 11:19:05;;;;;;;8.38;5.32;;;;;;;;;;5076254;28;20201;-86
2022/08/26 11:21:43;;;;;;;9.25;5.22;;;;;;;;;;5075388;28;20233;-86
2022/08/26 11:24:32;;;;;;;7.82;5.15;;;;;;;;;;5076685;28;20205;-86
2022/08/26 11:27:00;;;;;;;7.13;5.22;;;;;;;;;;5056739;28;20733;-83
2022/08/26 11:30:01;;;;;;;7.25;5.47;;;;;;;;;;5072979;28;20758;-87
2022/08/26 11:32:45;;;;;;;8.65;5.30;;;;;;;;;;5073917;28;20202;-87
2022/08/26 11:35:33;;;;;;;6.13;5.38;;;;;;;;;;5073770;28;20229;-84
2022/08/26 11:38:02;;;;;;;7.57;5.35;;;;;;;;;;5073756;28;20212;-89
2022/08/26 11:40:32;;;;;;;10.18;5.15;;;;;;;;;;5085802;28;20484;-91
2022/08/26 11:43:00;;;;;;;8.25;5.38;;;;;;;;;;5095727;28;20197;-85
2022/08/26 11:45:32;;;;;;;6.65;4.82;;;;;;;;;;5085515;28;20226;-91
2022/08/26 11:48:14;;;;;;;5.75;5.15;;;;;;;;;;5076235;28;20200;-89
2022/08/26 11:50:41;;;;;;;5.93;5.25;;;;;;;;;;5073433;28;20267;-83
2022/08/26 11:53:09;;;;;;;8.38;5.50;;;;;;;;;;5075634;28;20198;-87
2022/08/26 11:55:43;;;;;;;6.55;5.45;;;;;;;;;;5085077;28;20258;-87
2022/08/26 11:58:12;;;;;;;10.68;5.32;;;;;;;;;;5093174;28;20743;-88
2022/08/26 12:00:48;;;;;;;9.02;5.43;;;;;;;;;;5091872;28;20371;-86
2022/08/26 12:03:17;;;;;;;11.25;5.60;;;;;;;;;;5093409;28;20257;-86
2022/08/26 12:05:46;;;;;;;7.20;5.72;;;;;;;;;;5094114;28;20233;-87
2022/08/26 12:08:15;;;;;;;6.95;5.47;;;;;;;;;;5088285;28;20225;-83
2022/08/26 12:10:44;;;;;;;6.03;4.85;;;;;;;;;;5093629;28;20243;-88
2022/08/26 12:13:20;;;;;;;7.43;5.60;;;;;;;;;;5096176;28;20208;-85
2022/08/26 12:15:53;;;;;;;14.40;6.00;;;;;;;;;;5094412;28;20253;-84
2022/08/26 12:18:23;;;;;;;6.40;5.03;;;;;;;;;;5092202;28;20201;-84
2022/08/26 12:20:53;;;;;;;8.80;5.80;;;;;;;;;;5089805;28;20237;-85
2022/08/26 12:23:23;;;;;;;9.90;5.10;;;;;;;;;;5091236;28;20201;-82
2022/08/26 12:25:53;;;;;;;9.55;5.32;;;;;;;;;;5089697;28;20225;-85
2022/08/26 12:28:20;;;;;;;10.25;5.40;;;;;;;;;;5094189;28;20233;-86
2022/08/26 12:31:03;;;;;;;10.77;5.25;;;;;;;;;;5088688;28;20248;-83
2022/08/26 12:33:31;;;;;;;7.50;5.10;;;;;;;;;;5090491;28;20213;-87
2022/08/26 12:36:00;;;;;;;9.75;5.50;;;;;;;;;;5095445;28;20227;-86
2022/08/26 12:38:28;;;;;;;8.02;5.38;;;;;;;;;;5074935;28;20232;-86
2022/08/26 12:40:57;;;;;;;9.15;5.18;;;;;;;;;;5094330;28;20228;-87
2022/08/26 12:43:38;;;;;;;6.80;5.03;;;;;;;;;;5111794;28;20207;-90
2022/08/26 12:46:06;;;;;;;7.15;5.05;;;;;;;;;;5112927;28;20250;-85
2022/08/26 12:48:34;;;;;;;6.38;5.00;;;;;;;;;;5114679;28;20216;-86
2022/08/26 12:51:02;;;;;;;8.82;5.55;;;;;;;;;;5112690;28;20237;-85
2022/08/26 12:53:30;;;;;;;8.13;4.53;;;;;;;;;;5113433;28;20215;-88
2022/08/26 12:55:59;;;;;;;7.93;5.13;;;;;;;;;;5112883;28;20291;-86
2022/08/26 12:58:28;;;;;;;7.43;5.10;;;;;;;;;;5107198;28;20201;-89
2022/08/26 13:00:57;;;;;;;7.18;4.95;;;;;;;;;;5112059;28;20237;-87
2022/08/26 13:03:42;;;;;;;8.35;5.05;;;;;;;;;;5115457;28;20207;-86
2022/08/26 13:06:10;;;;;;;281.80;259.75;;;;;;;;;;5111649;28;20225;-86
2022/08/26 13:08:39;;;;;;;19.50;17.45;;;;;;;;;;5080273;28;20692;-86
2022/08/26 13:11:11;;;;;;;8.18;5.60;;;;;;;;;;5062372;28;20298;-86
2022/08/26 13:13:39;;;;;;;11.25;6.18;;;;;;;;;;5059209;28;20209;-86
2022/08/26 13:16:07;;;;;;;7.88;5.22;;;;;;;;;;5066330;28;20229;-86
2022/08/26 13:18:34;;;;;;;8.20;5.95;;;;;;;;;;5068590;28;20195;-86
2022/08/26 13:21:01;;;;;;;9.98;5.90;;;;;;;;;;5083375;28;20243;-86
2022/08/26 13:23:28;;;;;;;6.68;5.50;;;;;;;;;;5103188;28;20200;-85
2022/08/26 13:25:55;;;;;;;8.02;5.35;;;;;;;;;;5116539;28;20231;-86
2022/08/26 13:28:24;;;;;;;8.68;5.57;;;;;;;;;;5102913;28;20215;-88
2022/08/26 13:30:51;;;;;;;7.43;6.50;;;;;;;;;;5091075;28;20239;-81
2022/08/26 13:33:20;;;;;;;7.68;5.85;;;;;;;;;;5073124;28;20224;-82
2022/08/26 13:35:47;;;;;;;9.32;6.15;;;;;;;;;;5081118;28;20241;-81
2022/08/26 13:38:14;;;;;;;6.65;5.47;;;;;;;;;;5061813;28;20582;-81
2022/08/26 13:40:43;;;;;;;6.38;5.60;;;;;;;;;;5060380;28;20238;-82
2022/08/26 13:43:10;;;;;;;9.32;5.57;;;;;;;;;;5059522;28;20650;-86
2022/08/26 13:45:38;;;;;;;9.48;5.50;;;;;;;;;;5066459;28;20225;-86
2022/08/26 13:48:07;;;;;;;6.03;5.00;;;;;;;;;;5080324;28;20201;-87
2022/08/26 13:50:34;;;;;;;7.43;5.65;;;;;;;;;;5077807;28;20240;-86
2022/08/26 13:53:02;;;;;;;9.80;6.05;;;;;;;;;;5078930;28;20284;-86
2022/08/26 13:55:29;;;;;;;7.25;5.00;;;;;;;;;;5078230;28;20240;-87
2022/08/26 13:57:56;;;;;;;5.63;5.07;;;;;;;;;;5081131;28;20687;-86
2022/08/26 14:00:23;;;;;;;5.72;4.90;;;;;;;;;;5078544;28;20229;-86
2022/08/26 14:02:52;;;;;;;9.90;5.43;;;;;;;;;;5065627;28;20206;-86
2022/08/26 14:05:19;;;;;;;9.23;5.47;;;;;;;;;;5066478;28;20785;-85
2022/08/26 14:07:46;;;;;;;7.15;5.10;;;;;;;;;;5079451;28;20201;-87
2022/08/26 14:10:14;;;;;;;7.63;5.65;;;;;;;;;;5077303;28;20608;-84
2022/08/26 14:12:42;;;;;;;6.18;5.43;;;;;;;;;;5078830;28;20558;-85
2022/08/26 14:15:10;;;;;;;6.63;5.03;;;;;;;;;;5077871;28;20618;-86
2022/08/26 14:17:37;;;;;;;7.75;5.05;;;;;;;;;;5079222;28;20212;-85
2022/08/26 14:20:07;;;;;;;9.05;5.53;;;;;;;;;;5078215;28;20623;-86
2022/08/26 14:22:35;;;;;;;5.68;4.90;;;;;;;;;;5078523;28;20312;-84
2022/08/26 14:25:02;;;;;;;7.75;5.10;;;;;;;;;;5076823;28;20229;-83
2022/08/26 14:27:29;;;;;;;7.90;6.00;;;;;;;;;;5076048;28;20213;-83
2022/08/26 14:29:56;;;;;;;10.38;5.55;;;;;;;;;;5077741;28;20237;-84
2022/08/26 14:32:25;;;;;;;8.30;4.95;;;;;;;;;;5075604;28;20201;-84
2022/08/26 14:34:52;;;;;;;6.20;5.38;;;;;;;;;;5074860;28;20244;-85
2022/08/26 14:37:21;;;;;;;7.75;5.57;;;;;;;;;;5075895;28;20216;-85
2022/08/26 14:39:48;;;;;;;6.07;5.50;;;;;;;;;;5075899;28;20241;-85
2022/08/26 14:42:17;;;;;;;8.38;5.28;;;;;;;;;;5092426;28;20207;-85
2022/08/26 14:44:45;;;;;;;5.85;5.07;;;;;;;;;;5095735;28;20723;-84
2022/08/26 14:47:12;;;;;;;7.53;5.70;;;;;;;;;;5092460;28;20208;-85
2022/08/26 14:49:39;;;;;;;8.43;5.35;;;;;;;;;;5075590;28;20244;-83
2022/08/26 14:52:06;;;;;;;8.07;5.72;;;;;;;;;;5076045;28;20228;-84
2022/08/26 14:54:33;;;;;;;8.77;5.53;;;;;;;;;;5074618;28;20205;-84
2022/08/26 14:57:02;;;;;;;10.25;8.13;;;;;;;;;;5075691;28;20296;-84
2022/08/26 14:59:30;;;;;;;16.20;7.70;;;;;;;;;;5075465;28;20201;-85